createdAt,value
2018-01-06T00:00:24.698Z,17.4
2018-01-06T00:01:27.251Z,17.5
2018-01-06T00:02:29.661Z,17.5
2018-01-06T00:03:32.077Z,17.5
2018-01-06T00:04:34.587Z,17.5
2018-01-06T00:05:37.108Z,17.4
2018-01-06T00:06:39.548Z,17.4
2018-01-06T00:07:42.185Z,17.4
2018-01-06T00:08:44.605Z,17.4
2018-01-06T00:09:47.082Z,17.4
2018-01-06T00:10:49.615Z,17.4
2018-01-06T00:11:52.104Z,17.5
2018-01-06T00:12:54.565Z,17.5
2018-01-06T00:13:57.039Z,17.5
2018-01-06T00:14:59.450Z,17.5
2018-01-06T00:16:02.041Z,17.5
2018-01-06T00:17:04.483Z,17.5
2018-01-06T00:18:06.926Z,17.5
2018-01-06T00:19:09.371Z,17.5
2018-01-06T00:20:12.183Z,17.2
2018-01-06T00:22:23.138Z,15.4
2018-01-06T00:23:25.534Z,14.8
2018-01-06T00:24:27.933Z,14.6
2018-01-06T00:25:30.381Z,14.6
2018-01-06T00:26:37.395Z,14
2018-01-06T00:27:39.823Z,14
2018-01-06T00:28:42.223Z,13.8
2018-01-06T00:29:44.626Z,13.8
2018-01-06T00:30:47.035Z,13.9
2018-01-06T00:31:49.488Z,13.8
2018-01-06T00:32:51.929Z,13.8
2018-01-06T00:33:54.377Z,13.6
2018-01-06T00:34:56.770Z,13.5
2018-01-06T00:35:59.213Z,13.3
2018-01-06T00:37:01.647Z,13.4
2018-01-06T00:38:04.178Z,13.3
2018-01-06T00:39:06.710Z,13.4
2018-01-06T00:40:09.209Z,13.2
2018-01-06T00:41:11.724Z,13.2
2018-01-06T00:42:16.940Z,13.1
2018-01-06T00:43:19.356Z,13.1
2018-01-06T00:44:21.897Z,12.9
2018-01-06T00:45:24.322Z,13.1
2018-01-06T00:46:26.746Z,12.9
2018-01-06T00:47:29.267Z,13
2018-01-06T00:48:31.810Z,12.8
2018-01-06T00:49:34.338Z,12.8
2018-01-06T00:50:36.769Z,12.6
2018-01-06T00:51:39.248Z,12.6
2018-01-06T00:52:41.748Z,12.6
2018-01-06T00:53:44.172Z,12.7
2018-01-06T00:54:46.579Z,12.9
2018-01-06T00:55:49.071Z,12.8
2018-01-06T00:58:03.665Z,12.6
2018-01-06T00:59:06.158Z,12.6
2018-01-06T01:00:08.622Z,12.5
2018-01-06T01:01:11.041Z,12.5
2018-01-06T01:02:13.553Z,12.9
2018-01-06T01:03:16.015Z,12.7
2018-01-06T01:04:18.511Z,12.8
2018-01-06T01:05:20.931Z,12.7
2018-01-06T01:06:23.396Z,12.5
2018-01-06T01:07:25.802Z,12.5
2018-01-06T01:08:28.265Z,12.4
2018-01-06T01:09:30.666Z,12.4
2018-01-06T01:10:33.112Z,12.4
2018-01-06T01:11:35.539Z,12.4
2018-01-06T01:12:37.985Z,12.6
2018-01-06T01:13:40.423Z,12.6
2018-01-06T01:14:42.861Z,12.5
2018-01-06T01:15:45.323Z,12.5
2018-01-06T01:16:47.799Z,12.4
2018-01-06T01:17:50.201Z,12.4
2018-01-06T01:18:52.701Z,12.2
2018-01-06T01:19:55.152Z,12.2
2018-01-06T01:20:57.615Z,12.2
2018-01-06T01:22:00.072Z,12.3
2018-01-06T01:23:02.548Z,12.3
2018-01-06T01:24:10.449Z,12.1
2018-01-06T01:25:12.876Z,12.2
2018-01-06T01:26:15.365Z,12.1
2018-01-06T01:27:18.162Z,12.2
2018-01-06T01:28:20.787Z,11.9
2018-01-06T01:29:23.255Z,12.2
2018-01-06T01:30:25.680Z,12
2018-01-06T01:31:28.146Z,11.9
2018-01-06T01:32:30.599Z,11.7
2018-01-06T01:33:33.074Z,11.8
2018-01-06T01:34:35.550Z,12
2018-01-06T01:35:38.118Z,11.9
2018-01-06T01:36:42.175Z,11.9
2018-01-06T01:37:44.649Z,11.9
2018-01-06T01:38:47.100Z,11.7
2018-01-06T01:39:49.506Z,11.7
2018-01-06T01:40:51.888Z,11.5
2018-01-06T01:41:54.361Z,11.7
2018-01-06T01:42:57.919Z,12
2018-01-06T01:44:00.621Z,11.9
2018-01-06T01:45:03.149Z,12
2018-01-06T01:46:05.589Z,11.8
2018-01-06T01:47:08.041Z,11.8
2018-01-06T01:48:10.499Z,12
2018-01-06T01:49:12.868Z,11.9
2018-01-06T01:50:15.403Z,11.9
2018-01-06T01:51:17.838Z,11.8
2018-01-06T01:52:20.243Z,11.6
2018-01-06T01:53:22.669Z,11.7
2018-01-06T01:54:25.127Z,11.7
2018-01-06T01:55:27.584Z,11.8
2018-01-06T01:56:29.973Z,11.7
2018-01-06T01:57:32.353Z,11.7
2018-01-06T01:58:35.320Z,11.7
2018-01-06T01:59:37.817Z,11.7
2018-01-06T02:00:40.250Z,11.6
2018-01-06T02:01:42.685Z,11.5
2018-01-06T02:02:45.164Z,11.7
2018-01-06T02:03:47.668Z,11.7
2018-01-06T02:04:50.511Z,11.4
2018-01-06T02:05:52.934Z,11.3
2018-01-06T02:06:55.339Z,11.5
2018-01-06T02:07:57.838Z,11.9
2018-01-06T02:09:00.224Z,11.6
2018-01-06T02:10:02.733Z,11.4
2018-01-06T02:11:05.204Z,11.6
2018-01-06T02:12:08.746Z,11.5
2018-01-06T02:13:11.186Z,11.7
2018-01-06T02:14:13.565Z,11.7
2018-01-06T02:15:16.057Z,11.8
2018-01-06T02:16:18.481Z,11.4
2018-01-06T02:17:20.909Z,11.4
2018-01-06T02:18:23.382Z,11.6
2018-01-06T02:19:25.780Z,11.7
2018-01-06T02:20:28.219Z,11.7
2018-01-06T02:21:30.645Z,11.6
2018-01-06T02:22:33.032Z,11.7
2018-01-06T02:23:35.503Z,11.6
2018-01-06T02:24:37.941Z,11.5
2018-01-06T02:25:40.354Z,11.3
2018-01-06T02:26:42.817Z,11.4
2018-01-06T02:27:45.267Z,11.5
2018-01-06T02:28:47.688Z,11.2
2018-01-06T02:29:50.146Z,11.3
2018-01-06T02:30:52.635Z,11.4
2018-01-06T02:31:55.087Z,11.3
2018-01-06T02:32:57.509Z,11.2
2018-01-06T02:33:59.949Z,11.1
2018-01-06T02:35:02.411Z,11.2
2018-01-06T02:36:05.046Z,11
2018-01-06T02:37:07.483Z,11
2018-01-06T02:38:09.946Z,10.9
2018-01-06T02:39:12.367Z,10.9
2018-01-06T02:40:14.853Z,10.9
2018-01-06T02:41:20.958Z,11.1
2018-01-06T02:42:23.473Z,10.9
2018-01-06T02:43:25.880Z,11.1
2018-01-06T02:44:28.273Z,11
2018-01-06T02:45:30.668Z,11.1
2018-01-06T02:46:33.163Z,11
2018-01-06T02:47:35.599Z,11
2018-01-06T02:48:38.147Z,10.8
2018-01-06T02:49:40.523Z,11.1
2018-01-06T02:50:42.968Z,11.1
2018-01-06T02:51:45.453Z,11
2018-01-06T02:52:47.943Z,11.1
2018-01-06T02:53:50.328Z,10.8
2018-01-06T02:54:52.747Z,10.8
2018-01-06T02:55:55.342Z,10.9
2018-01-06T02:56:57.789Z,10.9
2018-01-06T02:58:00.216Z,10.9
2018-01-06T02:59:02.652Z,10.8
2018-01-06T03:00:05.119Z,10.9
2018-01-06T03:01:08.003Z,10.4
2018-01-06T03:02:10.464Z,10.5
2018-01-06T03:03:12.884Z,10.6
2018-01-06T03:04:15.456Z,10.5
2018-01-06T03:05:17.901Z,10.4
2018-01-06T03:06:20.290Z,10.5
2018-01-06T03:07:22.788Z,10.6
2018-01-06T03:08:25.200Z,10.6
2018-01-06T03:09:27.757Z,10.5
2018-01-06T03:10:30.194Z,10.6
2018-01-06T03:11:32.591Z,10.5
2018-01-06T03:12:39.511Z,10.5
2018-01-06T03:13:41.895Z,10.5
2018-01-06T03:14:44.328Z,10.3
2018-01-06T03:15:46.779Z,10.4
2018-01-06T03:16:49.268Z,10.3
2018-01-06T03:17:51.847Z,10.2
2018-01-06T03:18:54.244Z,10.1
2018-01-06T03:19:56.695Z,10.1
2018-01-06T03:20:59.138Z,10.1
2018-01-06T03:22:01.623Z,10.2
2018-01-06T03:23:04.064Z,10.1
2018-01-06T03:24:06.490Z,10
2018-01-06T03:25:08.923Z,10.1
2018-01-06T03:26:11.424Z,10
2018-01-06T03:27:13.928Z,10
2018-01-06T03:28:16.429Z,10.1
2018-01-06T03:29:18.964Z,10
2018-01-06T03:30:21.419Z,10.1
2018-01-06T03:31:23.868Z,10.1
2018-01-06T03:32:26.342Z,10
2018-01-06T03:33:28.804Z,10
2018-01-06T03:34:31.255Z,9.9
2018-01-06T03:35:33.703Z,9.9
2018-01-06T03:36:36.137Z,10
2018-01-06T03:37:38.561Z,10
2018-01-06T03:38:41.046Z,9.9
2018-01-06T03:39:43.535Z,9.9
2018-01-06T03:40:45.978Z,10
2018-01-06T03:41:48.521Z,9.9
2018-01-06T03:42:51.004Z,10.1
2018-01-06T03:43:53.612Z,10
2018-01-06T03:44:56.097Z,10
2018-01-06T03:45:58.541Z,10
2018-01-06T03:47:00.998Z,10
2018-01-06T03:48:03.414Z,9.9
2018-01-06T03:49:06.036Z,9.9
2018-01-06T03:50:08.550Z,9.9
2018-01-06T03:51:11.075Z,9.8
2018-01-06T03:52:13.504Z,9.9
2018-01-06T03:53:16.050Z,9.9
2018-01-06T03:54:18.507Z,9.9
2018-01-06T03:55:20.939Z,9.8
2018-01-06T03:56:23.371Z,9.9
2018-01-06T03:57:25.845Z,9.9
2018-01-06T03:58:28.322Z,9.9
2018-01-06T03:59:30.794Z,9.9
2018-01-06T04:00:33.237Z,9.7
2018-01-06T04:01:35.753Z,9.7
2018-01-06T04:02:38.339Z,9.8
2018-01-06T04:03:40.820Z,9.9
2018-01-06T04:04:43.233Z,9.9
2018-01-06T04:05:45.685Z,9.9
2018-01-06T04:06:48.132Z,9.9
2018-01-06T04:07:50.674Z,10.1
2018-01-06T04:08:53.137Z,10.2
2018-01-06T04:09:55.724Z,9.9
2018-01-06T04:10:58.173Z,9.8
2018-01-06T04:12:00.660Z,10
2018-01-06T04:13:03.177Z,9.9
2018-01-06T04:14:05.572Z,9.7
2018-01-06T04:15:08.043Z,9.7
2018-01-06T04:16:10.479Z,9.8
2018-01-06T04:17:12.932Z,9.9
2018-01-06T04:18:15.344Z,10.1
2018-01-06T04:19:17.789Z,10
2018-01-06T04:20:20.259Z,9.8
2018-01-06T04:21:22.723Z,9.8
2018-01-06T04:22:25.186Z,9.9
2018-01-06T04:23:27.681Z,10.1
2018-01-06T04:24:30.163Z,10.1
2018-01-06T04:25:32.660Z,10
2018-01-06T04:26:35.249Z,10
2018-01-06T04:27:37.723Z,10.1
2018-01-06T04:28:40.176Z,9.9
2018-01-06T04:29:42.808Z,9.9
2018-01-06T04:30:45.239Z,9.8
2018-01-06T04:31:47.733Z,9.9
2018-01-06T04:32:50.229Z,9.8
2018-01-06T04:33:52.701Z,9.8
2018-01-06T04:34:55.223Z,9.9
2018-01-06T04:35:57.778Z,9.9
2018-01-06T04:37:00.239Z,9.7
2018-01-06T04:38:02.810Z,9.7
2018-01-06T04:39:05.293Z,9.8
2018-01-06T04:40:07.764Z,9.7
2018-01-06T04:41:10.271Z,9.7
2018-01-06T04:42:12.768Z,9.6
2018-01-06T04:43:15.249Z,9.6
2018-01-06T04:44:17.669Z,9.5
2018-01-06T04:45:20.149Z,9.5
2018-01-06T04:46:22.563Z,9.6
2018-01-06T04:47:25.064Z,9.5
2018-01-06T04:48:27.475Z,9.5
2018-01-06T04:49:29.937Z,9.6
2018-01-06T04:50:32.370Z,9.5
2018-01-06T04:51:34.825Z,9.6
2018-01-06T04:52:37.464Z,9.5
2018-01-06T04:53:39.871Z,9.6
2018-01-06T04:54:42.295Z,9.5
2018-01-06T04:55:44.715Z,9.9
2018-01-06T04:56:47.243Z,9.7
2018-01-06T04:57:49.680Z,9.6
2018-01-06T04:58:52.185Z,9.5
2018-01-06T04:59:54.639Z,9.4
2018-01-06T05:00:57.160Z,9.5
2018-01-06T05:01:59.595Z,9.5
2018-01-06T05:03:02.038Z,9.5
2018-01-06T05:04:04.509Z,9.5
2018-01-06T05:05:06.938Z,9.4
2018-01-06T05:06:09.434Z,9.3
2018-01-06T05:07:11.845Z,9.3
2018-01-06T05:08:14.334Z,9.2
2018-01-06T05:09:16.763Z,9.2
2018-01-06T05:10:19.225Z,9.1
2018-01-06T05:11:21.712Z,9.2
2018-01-06T05:12:24.224Z,9.1
2018-01-06T05:13:26.686Z,9.1
2018-01-06T05:14:29.101Z,9.1
2018-01-06T05:15:31.555Z,9.1
2018-01-06T05:16:33.982Z,9.1
2018-01-06T05:17:36.432Z,9.2
2018-01-06T05:18:38.881Z,9.3
2018-01-06T05:19:41.321Z,9.2
2018-01-06T05:20:43.747Z,9.2
2018-01-06T05:21:46.203Z,9.2
2018-01-06T05:22:48.705Z,9.2
2018-01-06T05:23:51.160Z,9.1
2018-01-06T05:24:53.616Z,9.2
2018-01-06T05:25:56.031Z,9.5
2018-01-06T05:26:58.476Z,9.5
2018-01-06T05:28:01.210Z,9.3
2018-01-06T05:29:10.071Z,9.2
2018-01-06T05:30:12.505Z,9.2
2018-01-06T05:31:14.955Z,9.5
2018-01-06T05:32:17.509Z,9.3
2018-01-06T05:33:19.947Z,9.2
2018-01-06T05:34:22.371Z,9.2
2018-01-06T05:35:24.844Z,9.3
2018-01-06T05:36:27.326Z,9.1
2018-01-06T05:37:29.901Z,9.1
2018-01-06T05:38:32.366Z,9
2018-01-06T05:39:34.848Z,9.1
2018-01-06T05:40:37.369Z,9.1
2018-01-06T05:41:39.758Z,9
2018-01-06T05:42:42.205Z,9.1
2018-01-06T05:43:44.681Z,9.3
2018-01-06T05:44:47.373Z,9.4
2018-01-06T05:45:49.831Z,9.1
2018-01-06T05:46:52.393Z,9.1
2018-01-06T05:47:54.918Z,9
2018-01-06T05:48:57.410Z,9.1
2018-01-06T05:49:59.874Z,9.1
2018-01-06T05:51:02.330Z,9.1
2018-01-06T05:52:05.378Z,9.1
2018-01-06T05:53:07.829Z,9
2018-01-06T05:54:10.594Z,9
2018-01-06T05:55:12.993Z,9.1
2018-01-06T05:56:15.502Z,8.9
2018-01-06T05:57:18.024Z,9.1
2018-01-06T05:58:20.501Z,9
2018-01-06T05:59:22.979Z,9
2018-01-06T06:00:25.512Z,9
2018-01-06T06:01:28.950Z,9
2018-01-06T06:02:31.426Z,9.1
2018-01-06T06:03:33.874Z,9
2018-01-06T06:04:36.312Z,8.9
2018-01-06T06:05:38.868Z,8.8
2018-01-06T06:06:41.377Z,8.9
2018-01-06T06:07:50.578Z,8.9
2018-01-06T06:08:53.080Z,8.8
2018-01-06T06:09:56.366Z,8.8
2018-01-06T06:10:59.072Z,9.1
2018-01-06T06:12:01.607Z,9
2018-01-06T06:13:04.152Z,9
2018-01-06T06:14:08.946Z,8.9
2018-01-06T06:15:11.387Z,8.8
2018-01-06T06:16:13.887Z,8.8
2018-01-06T06:17:16.386Z,8.8
2018-01-06T06:18:18.944Z,9.1
2018-01-06T06:19:21.475Z,8.9
2018-01-06T06:20:24.059Z,8.8
2018-01-06T06:21:26.658Z,9
2018-01-06T06:22:29.162Z,9.3
2018-01-06T06:23:31.592Z,9.1
2018-01-06T06:24:34.012Z,8.9
2018-01-06T06:25:41.959Z,9.1
2018-01-06T06:26:44.590Z,9.1
2018-01-06T06:27:46.999Z,8.9
2018-01-06T06:28:49.562Z,9
2018-01-06T06:29:51.984Z,8.8
2018-01-06T06:30:54.419Z,8.9
2018-01-06T06:31:56.921Z,8.8
2018-01-06T06:32:59.400Z,8.9
2018-01-06T06:34:01.859Z,9
2018-01-06T06:35:04.318Z,8.8
2018-01-06T06:36:06.768Z,8.8
2018-01-06T06:37:09.322Z,8.8
2018-01-06T06:38:11.916Z,8.8
2018-01-06T06:39:14.398Z,8.7
2018-01-06T06:40:16.783Z,8.8
2018-01-06T06:41:19.321Z,8.8
2018-01-06T06:42:21.769Z,8.7
2018-01-06T06:43:24.270Z,8.6
2018-01-06T06:44:26.754Z,8.7
2018-01-06T06:45:29.323Z,8.6
2018-01-06T06:46:31.874Z,8.4
2018-01-06T06:47:34.370Z,8.4
2018-01-06T06:48:36.909Z,8.4
2018-01-06T06:49:39.431Z,8.4
2018-01-06T06:50:46.340Z,8.3
2018-01-06T06:51:49.156Z,8.3
2018-01-06T06:52:51.759Z,8.2
2018-01-06T06:53:54.226Z,8.2
2018-01-06T06:54:56.837Z,8.3
2018-01-06T06:55:59.396Z,8.2
2018-01-06T06:57:05.763Z,8.2
2018-01-06T06:58:08.385Z,8.2
2018-01-06T06:59:10.940Z,8.3
2018-01-06T07:00:13.719Z,8.3
2018-01-06T07:01:16.372Z,8.3
2018-01-06T07:02:18.921Z,8.3
2018-01-06T07:03:21.411Z,8.3
2018-01-06T07:04:23.862Z,8.3
2018-01-06T07:05:26.438Z,8.2
2018-01-06T07:06:28.938Z,8.2
2018-01-06T07:07:31.411Z,8.1
2018-01-06T07:08:33.933Z,8
2018-01-06T07:09:36.492Z,8
2018-01-06T07:10:39.012Z,7.9
2018-01-06T07:11:41.484Z,8.1
2018-01-06T07:12:43.940Z,8.1
2018-01-06T07:13:46.437Z,8
2018-01-06T07:14:49.050Z,8
2018-01-06T07:15:51.629Z,8
2018-01-06T07:16:54.107Z,8
2018-01-06T07:17:56.594Z,8
2018-01-06T07:18:59.100Z,8
2018-01-06T07:20:01.706Z,8.1
2018-01-06T07:21:04.321Z,8
2018-01-06T07:22:06.845Z,8
2018-01-06T07:23:09.370Z,7.8
2018-01-06T07:24:11.872Z,7.9
2018-01-06T07:25:14.428Z,7.7
2018-01-06T07:26:16.966Z,7.8
2018-01-06T07:27:19.732Z,7.8
2018-01-06T07:28:22.328Z,7.8
2018-01-06T07:29:24.865Z,7.9
2018-01-06T07:30:27.436Z,7.8
2018-01-06T07:31:30.176Z,7.8
2018-01-06T07:32:32.742Z,7.8
2018-01-06T07:33:35.295Z,7.9
2018-01-06T07:34:37.960Z,7.8
2018-01-06T07:35:40.480Z,7.8
2018-01-06T07:36:42.900Z,7.9
2018-01-06T07:37:45.407Z,7.8
2018-01-06T07:38:48.120Z,7.8
2018-01-06T07:39:50.587Z,7.9
2018-01-06T07:40:53.009Z,8
2018-01-06T07:41:55.506Z,8.4
2018-01-06T07:42:58.019Z,8.3
2018-01-06T07:44:02.912Z,8.2
2018-01-06T07:45:05.464Z,8.3
2018-01-06T07:46:08.186Z,8.3
2018-01-06T07:47:10.589Z,8.4
2018-01-06T07:48:13.078Z,8.2
2018-01-06T07:49:15.510Z,8.5
2018-01-06T07:50:18.074Z,8.4
2018-01-06T07:51:25.961Z,8.4
2018-01-06T07:52:28.983Z,8.4
2018-01-06T07:53:31.439Z,8.3
2018-01-06T07:54:33.969Z,8.2
2018-01-06T07:55:36.563Z,8.1
2018-01-06T07:56:39.172Z,8.3
2018-01-06T07:57:41.748Z,8.3
2018-01-06T07:58:44.239Z,8.3
2018-01-06T07:59:46.820Z,8
2018-01-06T08:00:49.463Z,8.1
2018-01-06T08:01:51.996Z,8.3
2018-01-06T08:02:54.425Z,8.4
2018-01-06T08:03:56.947Z,8.5
2018-01-06T08:04:59.599Z,8.5
2018-01-06T08:06:02.114Z,8.5
2018-01-06T08:07:04.588Z,8.5
2018-01-06T08:08:07.114Z,8.6
2018-01-06T08:09:09.711Z,8.7
2018-01-06T08:10:12.330Z,8.6
2018-01-06T08:11:14.842Z,8.5
2018-01-06T08:12:17.358Z,8.4
2018-01-06T08:13:19.973Z,8.4
2018-01-06T08:14:22.536Z,8.4
2018-01-06T08:15:25.019Z,8.5
2018-01-06T08:16:27.491Z,8.6
2018-01-06T08:17:30.131Z,8.5
2018-01-06T08:18:32.669Z,8.6
2018-01-06T08:19:35.175Z,8.5
2018-01-06T08:20:37.802Z,8.5
2018-01-06T08:21:40.506Z,8.5
2018-01-06T08:22:42.962Z,8.6
2018-01-06T08:23:45.538Z,8.5
2018-01-06T08:24:48.195Z,8.5
2018-01-06T08:25:50.652Z,8.5
2018-01-06T08:26:53.145Z,8.5
2018-01-06T08:27:55.794Z,8.6
2018-01-06T08:28:58.411Z,8.6
2018-01-06T08:30:01.227Z,8.7
2018-01-06T08:31:03.859Z,8.5
2018-01-06T08:32:06.372Z,8.6
2018-01-06T08:33:08.989Z,8.6
2018-01-06T08:34:11.739Z,8.5
2018-01-06T08:35:14.247Z,8.9
2018-01-06T08:36:16.784Z,8.7
2018-01-06T08:37:21.239Z,8.6
2018-01-06T08:38:23.754Z,8.7
2018-01-06T08:40:33.532Z,8.8
2018-01-06T08:41:36.305Z,8.6
2018-01-06T08:42:38.792Z,8.7
2018-01-06T08:43:41.238Z,8.8
2018-01-06T08:44:43.746Z,8.8
2018-01-06T08:45:46.235Z,8.8
2018-01-06T08:46:48.823Z,8.8
2018-01-06T08:47:51.259Z,8.7
2018-01-06T08:48:53.832Z,8.7
2018-01-06T08:49:56.301Z,8.8
2018-01-06T08:50:58.916Z,8.8
2018-01-06T08:52:01.514Z,9.5
2018-01-06T08:53:04.050Z,10.4
2018-01-06T08:54:06.513Z,11.2
2018-01-06T08:55:09.150Z,11.5
2018-01-06T08:56:11.647Z,11.7
2018-01-06T08:57:14.191Z,11.9
2018-01-06T08:58:16.730Z,12.1
2018-01-06T08:59:19.318Z,12.3
2018-01-06T09:00:21.874Z,12.3
2018-01-06T09:01:24.390Z,12.4
2018-01-06T09:02:26.944Z,12.4
2018-01-06T09:03:29.580Z,12.5
2018-01-06T09:03:55.211Z,12.3
2018-01-06T09:04:57.854Z,12.7
2018-01-06T09:06:00.545Z,12.8
2018-01-06T09:07:03.380Z,12.8
2018-01-06T09:08:06.195Z,13
2018-01-06T09:09:09.021Z,12.9
2018-01-06T09:10:11.844Z,13.1
2018-01-06T09:11:20.945Z,13
2018-01-06T09:12:23.632Z,13.1
2018-01-06T09:13:26.339Z,13.1
2018-01-06T09:14:29.072Z,13.2
2018-01-06T09:15:31.919Z,13.4
2018-01-06T09:16:34.641Z,13.2
2018-01-06T09:17:37.506Z,13.1
2018-01-06T09:18:40.312Z,13.2
2018-01-06T09:19:42.996Z,13.5
2018-01-06T09:20:45.852Z,13.6
2018-01-06T09:21:48.759Z,13.4
2018-01-06T09:22:51.485Z,13.4
2018-01-06T09:23:54.989Z,13.6
2018-01-06T09:24:57.667Z,13.6
2018-01-06T09:26:00.451Z,13.7
2018-01-06T09:27:03.530Z,13.6
2018-01-06T09:28:08.617Z,13.7
2018-01-06T09:29:12.808Z,13.7
2018-01-06T09:30:15.984Z,13.7
2018-01-06T09:31:19.149Z,13.7
2018-01-06T09:32:22.012Z,13.7
2018-01-06T09:33:24.650Z,13.7
2018-01-06T09:34:27.427Z,13.8
2018-01-06T09:35:30.233Z,13.7
2018-01-06T09:36:32.889Z,14.1
2018-01-06T09:37:35.555Z,14
2018-01-06T09:38:42.767Z,14.1
2018-01-06T09:39:45.579Z,14.1
2018-01-06T09:40:48.401Z,14.1
2018-01-06T09:41:57.829Z,14.2
2018-01-06T09:43:00.857Z,14.2
2018-01-06T09:44:03.573Z,14.3
2018-01-06T09:45:06.568Z,14.4
2018-01-06T09:46:10.226Z,14.3
2018-01-06T09:47:12.893Z,14.4
2018-01-06T09:48:15.597Z,14.5
2018-01-06T09:49:18.376Z,14.6
2018-01-06T09:50:21.205Z,14.7
2018-01-06T09:51:24.873Z,14.6
2018-01-06T09:52:27.945Z,14.7
2018-01-06T09:53:31.494Z,14.8
2018-01-06T09:54:34.523Z,14.6
2018-01-06T09:55:37.284Z,14.5
2018-01-06T09:56:40.388Z,14.6
2018-01-06T09:57:43.081Z,14.6
2018-01-06T09:58:46.133Z,14.5
2018-01-06T09:59:49.114Z,14.6
2018-01-06T10:00:51.929Z,14.6
2018-01-06T10:01:54.658Z,14.6
2018-01-06T10:02:57.431Z,14.6
2018-01-06T10:04:00.287Z,14.8
2018-01-06T10:05:09.321Z,14.9
2018-01-06T10:06:12.206Z,14.8
2018-01-06T10:07:15.030Z,14.8
2018-01-06T10:08:24.904Z,14.9
2018-01-06T10:09:27.622Z,15
2018-01-06T10:10:30.870Z,15
2018-01-06T10:11:33.694Z,15
2018-01-06T10:12:36.551Z,15.1
2018-01-06T10:13:39.967Z,15.1
2018-01-06T10:14:42.743Z,15.2
2018-01-06T10:15:45.507Z,15.4
2018-01-06T10:16:48.306Z,15.4
2018-01-06T10:17:51.034Z,15.3
2018-01-06T10:20:03.152Z,15.2
2018-01-06T10:21:05.904Z,15.3
2018-01-06T10:22:08.686Z,15.2
2018-01-06T10:23:11.489Z,15.2
2018-01-06T10:24:14.112Z,15.3
2018-01-06T10:25:16.846Z,15.3
2018-01-06T10:26:19.548Z,15.3
2018-01-06T10:27:22.319Z,15.3
2018-01-06T10:28:25.012Z,15.3
2018-01-06T10:29:27.634Z,15.3
2018-01-06T10:30:30.767Z,15.3
2018-01-06T10:31:33.924Z,15.4
2018-01-06T10:32:36.885Z,15.4
2018-01-06T10:33:40.432Z,15.6
2018-01-06T10:34:43.169Z,15.5
2018-01-06T10:35:45.806Z,15.7
2018-01-06T10:36:48.521Z,15.6
2018-01-06T10:37:52.089Z,15.6
2018-01-06T10:38:54.964Z,15.6
2018-01-06T10:39:57.675Z,15.6
2018-01-06T10:41:00.403Z,15.6
2018-01-06T10:42:03.529Z,15.5
2018-01-06T10:44:15.198Z,15.8
2018-01-06T10:45:18.068Z,15.8
2018-01-06T10:46:20.795Z,15.8
2018-01-06T10:47:23.562Z,15.7
2018-01-06T10:48:26.305Z,15.9
2018-01-06T10:49:29.087Z,15.8
2018-01-06T10:50:31.990Z,15.8
2018-01-06T10:51:34.761Z,15.8
2018-01-06T10:52:37.712Z,15.7
2018-01-06T10:53:40.812Z,15.7
2018-01-06T10:54:43.747Z,15.8
2018-01-06T10:55:46.653Z,15.9
2018-01-06T10:56:49.717Z,15.9
2018-01-06T10:57:52.449Z,16
2018-01-06T10:58:55.249Z,15.9
2018-01-06T10:59:58.108Z,15.8
2018-01-06T11:01:00.925Z,16
2018-01-06T11:02:03.836Z,16.1
2018-01-06T11:03:06.657Z,16
2018-01-06T11:04:09.492Z,16
2018-01-06T11:05:12.155Z,16.1
2018-01-06T11:06:15.823Z,16
2018-01-06T11:07:18.767Z,16
2018-01-06T11:08:21.605Z,15.9
2018-01-06T11:09:24.600Z,16
2018-01-06T11:10:27.314Z,16
2018-01-06T11:11:30.163Z,16
2018-01-06T11:12:32.830Z,16.1
2018-01-06T11:13:35.564Z,16
2018-01-06T11:14:38.273Z,15.9
2018-01-06T11:15:41.138Z,15.9
2018-01-06T11:16:43.877Z,15.9
2018-01-06T11:17:46.562Z,16
2018-01-06T11:18:49.931Z,16
2018-01-06T11:19:52.679Z,16.1
2018-01-06T11:20:55.375Z,16.2
2018-01-06T11:21:58.114Z,16.2
2018-01-06T11:23:00.894Z,16.1
2018-01-06T11:24:03.728Z,16.3
2018-01-06T11:25:09.770Z,16.3
2018-01-06T11:26:12.379Z,16.3
2018-01-06T11:27:15.509Z,16.3
2018-01-06T11:28:18.415Z,16.3
2018-01-06T11:29:21.646Z,16.3
2018-01-06T11:30:24.356Z,16.3
2018-01-06T11:31:27.101Z,16.3
2018-01-06T11:32:34.939Z,16.3
2018-01-06T11:33:37.648Z,16.4
2018-01-06T11:34:41.625Z,16.4
2018-01-06T11:35:44.539Z,16.4
2018-01-06T11:36:47.129Z,16.4
2018-01-06T11:37:50.030Z,16.4
2018-01-06T11:38:52.858Z,16.4
2018-01-06T11:39:55.628Z,16.4
2018-01-06T11:40:58.279Z,16.5
2018-01-06T11:42:01.215Z,16.5
2018-01-06T11:43:04.032Z,16.4
2018-01-06T11:44:07.114Z,16.5
2018-01-06T11:45:10.304Z,16.5
2018-01-06T11:46:13.431Z,16.5
2018-01-06T11:47:16.505Z,16.5
2018-01-06T11:48:19.560Z,16.5
2018-01-06T11:49:22.344Z,16.5
2018-01-06T11:50:25.373Z,16.5
2018-01-06T11:51:27.954Z,16.6
2018-01-06T11:52:30.733Z,16.6
2018-01-06T11:53:33.532Z,16.7
2018-01-06T11:54:36.347Z,16.7
2018-01-06T11:55:39.472Z,16.7
2018-01-06T11:56:42.302Z,16.7
2018-01-06T11:57:45.006Z,16.7
2018-01-06T11:58:47.660Z,16.7
2018-01-06T11:59:51.187Z,16.8
2018-01-06T12:00:53.800Z,16.7
2018-01-06T12:01:56.423Z,16.8
2018-01-06T12:02:59.459Z,16.7
2018-01-06T12:04:02.385Z,16.8
2018-01-06T12:05:05.066Z,16.7
2018-01-06T12:06:07.813Z,16.7
2018-01-06T12:07:10.631Z,16.8
2018-01-06T12:08:13.421Z,16.8
2018-01-06T12:09:16.126Z,16.8
2018-01-06T12:10:18.835Z,16.8
2018-01-06T12:11:21.575Z,16.8
2018-01-06T12:12:24.374Z,16.8
2018-01-06T12:13:27.114Z,16.9
2018-01-06T12:14:29.857Z,16.8
2018-01-06T12:15:32.550Z,16.8
2018-01-06T12:16:35.270Z,16.8
2018-01-06T12:17:50.068Z,16.9
2018-01-06T12:18:52.756Z,16.9
2018-01-06T12:19:55.362Z,16.9
2018-01-06T12:20:58.060Z,17
2018-01-06T12:22:01.314Z,16.8
2018-01-06T12:23:04.257Z,16.9
2018-01-06T12:24:07.077Z,16.9
2018-01-06T12:25:10.095Z,17
2018-01-06T12:26:12.882Z,16.9
2018-01-06T12:27:15.546Z,16.9
2018-01-06T12:28:18.476Z,17
2018-01-06T12:29:21.449Z,17.1
2018-01-06T12:30:24.141Z,17
2018-01-06T12:31:26.875Z,17
2018-01-06T12:32:29.802Z,16.9
2018-01-06T12:33:32.603Z,16.9
2018-01-06T12:34:35.291Z,17
2018-01-06T12:35:37.981Z,17.1
2018-01-06T12:36:40.834Z,17
2018-01-06T12:37:43.542Z,17
2018-01-06T12:38:46.258Z,17.1
2018-01-06T12:39:49.277Z,17
2018-01-06T12:40:52.241Z,17
2018-01-06T12:41:54.837Z,17
2018-01-06T12:42:57.546Z,17.1
2018-01-06T12:44:00.434Z,17.1
2018-01-06T12:45:03.165Z,17.1
2018-01-06T12:46:06.804Z,17.1
2018-01-06T12:47:09.676Z,17
2018-01-06T12:48:12.542Z,17
2018-01-06T12:49:15.196Z,17
2018-01-06T12:50:17.929Z,17.1
2018-01-06T12:51:20.711Z,17
2018-01-06T12:52:26.415Z,17
2018-01-06T12:53:29.152Z,17
2018-01-06T12:54:31.880Z,17
2018-01-06T12:55:34.564Z,17
2018-01-06T12:56:37.221Z,17
2018-01-06T12:57:40.004Z,17
2018-01-06T12:58:42.727Z,17
2018-01-06T12:59:45.428Z,16.9
2018-01-06T13:00:48.102Z,16.9
2018-01-06T13:01:50.888Z,16.9
2018-01-06T13:02:53.512Z,17
2018-01-06T13:03:56.087Z,17
2018-01-06T13:04:58.712Z,17
2018-01-06T13:06:01.688Z,17
2018-01-06T13:07:04.427Z,17
2018-01-06T13:08:07.230Z,17
2018-01-06T13:09:09.989Z,17
2018-01-06T13:10:12.626Z,17.1
2018-01-06T13:11:15.155Z,17.2
2018-01-06T13:12:17.705Z,17.1
2018-01-06T13:13:20.551Z,17.1
2018-01-06T13:14:23.268Z,17
2018-01-06T13:15:25.932Z,17
2018-01-06T13:16:28.731Z,17
2018-01-06T13:17:31.517Z,17
2018-01-06T13:18:34.217Z,17
2018-01-06T13:19:36.939Z,17
2018-01-06T13:20:39.625Z,17
2018-01-06T13:21:42.443Z,17
2018-01-06T13:22:45.119Z,17
2018-01-06T13:23:48.103Z,17
2018-01-06T13:24:50.785Z,17
2018-01-06T13:25:53.316Z,17
2018-01-06T13:26:55.996Z,17.1
2018-01-06T13:27:58.765Z,17.1
2018-01-06T13:29:01.901Z,17.1
2018-01-06T13:30:04.577Z,17.2
2018-01-06T13:31:07.393Z,17.2
2018-01-06T13:32:10.138Z,17.2
2018-01-06T13:33:12.946Z,17.2
2018-01-06T13:34:15.920Z,17.2
2018-01-06T13:35:18.653Z,17.2
2018-01-06T13:36:21.346Z,17.2
2018-01-06T13:37:23.960Z,17.3
2018-01-06T13:38:26.590Z,17.2
2018-01-06T13:39:29.237Z,17.2
2018-01-06T13:40:32.069Z,17.2
2018-01-06T13:41:34.722Z,17.2
2018-01-06T13:42:37.442Z,17.1
2018-01-06T13:43:45.173Z,17.1
2018-01-06T13:44:47.925Z,17.1
2018-01-06T13:45:50.679Z,17.1
2018-01-06T13:46:53.396Z,17
2018-01-06T13:47:55.941Z,17
2018-01-06T13:48:58.536Z,17.1
2018-01-06T13:50:01.466Z,17.1
2018-01-06T13:51:04.275Z,17.2
2018-01-06T13:52:06.958Z,17.2
2018-01-06T13:53:09.698Z,17.2
2018-01-06T13:54:12.413Z,17.2
2018-01-06T13:55:15.083Z,17.1
2018-01-06T13:56:17.636Z,17.2
2018-01-06T13:57:20.423Z,17.1
2018-01-06T13:58:22.982Z,17.1
2018-01-06T13:59:25.751Z,16.9
2018-01-06T14:00:28.683Z,17.2
2018-01-06T14:01:31.524Z,17.1
2018-01-06T14:03:44.397Z,17.2
2018-01-06T14:04:47.136Z,17.3
2018-01-06T14:05:50.098Z,17.4
2018-01-06T14:06:52.741Z,17.4
2018-01-06T14:07:55.419Z,17.2
2018-01-06T14:09:05.526Z,17.4
2018-01-06T14:10:09.305Z,17.3
2018-01-06T14:11:12.379Z,17.3
2018-01-06T14:12:15.563Z,17.4
2018-01-06T14:13:18.542Z,17.3
2018-01-06T14:14:23.652Z,17.4
2018-01-06T14:15:36.197Z,17.5
2018-01-06T14:16:38.940Z,17.6
2018-01-06T14:17:41.747Z,17.5
2018-01-06T14:18:52.700Z,17.1
2018-01-06T14:19:55.529Z,17.2